createdAt,value
2023-04-04T00:01:06.426Z,19.58
2023-04-04T00:03:34.890Z,22.45
2023-04-04T00:06:04.536Z,25.70
2023-04-04T00:08:32.758Z,21.77
2023-04-04T00:11:01.563Z,21.42
2023-04-04T00:13:30.188Z,23.23
2023-04-04T00:15:58.889Z,21.90
2023-04-04T00:18:27.465Z,23.00
2023-04-04T00:20:56.459Z,22.08
2023-04-04T00:23:26.258Z,21.08
2023-04-04T00:25:55.366Z,16.45
2023-04-04T00:28:23.921Z,15.30
2023-04-04T00:30:52.585Z,15.30
2023-04-04T00:33:21.682Z,14.25
2023-04-04T00:35:50.351Z,13.68
2023-04-04T00:38:18.652Z,12.32
2023-04-04T00:40:52.005Z,12.25
2023-04-04T00:43:20.421Z,12.25
2023-04-04T00:45:48.900Z,9.35
2023-04-04T00:48:17.421Z,9.88
2023-04-04T00:50:45.689Z,8.57
2023-04-04T00:53:13.956Z,10.32
2023-04-04T00:55:43.549Z,9.82
2023-04-04T00:58:13.855Z,10.00
2023-04-04T01:00:42.293Z,10.20
2023-04-04T01:03:12.812Z,11.55
2023-04-04T01:05:42.525Z,12.75
2023-04-04T01:08:10.965Z,15.18
2023-04-04T01:10:40.349Z,14.57
2023-04-04T01:13:09.744Z,15.45
2023-04-04T01:15:39.616Z,15.40
2023-04-04T01:18:10.943Z,17.80
2023-04-04T01:20:45.968Z,14.82
2023-04-04T01:23:15.572Z,14.00
2023-04-04T01:25:47.505Z,14.43
2023-04-04T01:28:16.412Z,12.25
2023-04-04T01:30:46.499Z,12.95
2023-04-04T01:33:22.115Z,11.02
2023-04-04T01:35:59.597Z,11.48
2023-04-04T01:38:32.252Z,11.85
2023-04-04T01:41:04.906Z,9.85
2023-04-04T01:43:35.040Z,10.07
2023-04-04T01:46:04.997Z,9.65
2023-04-04T01:48:33.604Z,10.00
2023-04-04T01:51:06.550Z,9.15
2023-04-04T01:53:36.268Z,7.55
2023-04-04T01:56:06.551Z,7.57
2023-04-04T01:58:36.100Z,6.47
2023-04-04T02:01:04.303Z,6.25
2023-04-04T02:03:33.227Z,7.60
2023-04-04T02:06:01.455Z,7.60
2023-04-04T02:08:29.905Z,9.45
2023-04-04T02:10:59.682Z,8.93
2023-04-04T02:13:30.233Z,9.15
2023-04-04T02:16:00.418Z,8.45
2023-04-04T02:18:28.733Z,7.43
2023-04-04T02:20:57.966Z,8.48
2023-04-04T02:23:26.322Z,8.10
2023-04-04T02:25:55.983Z,8.07
2023-04-04T02:28:24.774Z,7.53
2023-04-04T02:30:54.408Z,8.98
2023-04-04T02:33:23.042Z,8.90
2023-04-04T02:35:52.517Z,7.57
2023-04-04T02:38:21.096Z,7.28
2023-04-04T02:40:50.406Z,7.35
2023-04-04T02:43:18.726Z,7.75
2023-04-04T02:45:49.490Z,7.72
2023-04-04T02:48:27.451Z,5.63
2023-04-04T02:50:59.865Z,7.22
2023-04-04T02:53:29.165Z,4.50
2023-04-04T02:56:04.028Z,4.78
2023-04-04T02:58:32.977Z,5.55
2023-04-04T03:01:01.434Z,4.97
2023-04-04T03:03:36.696Z,5.30
2023-04-04T03:06:05.478Z,6.05
2023-04-04T03:08:35.017Z,9.13
2023-04-04T03:11:03.389Z,9.20
2023-04-04T03:13:31.613Z,8.73
2023-04-04T03:16:02.770Z,8.93
2023-04-04T03:18:36.601Z,9.73
2023-04-04T03:21:05.178Z,9.02
2023-04-04T03:23:33.316Z,9.85
2023-04-04T03:26:02.198Z,10.27
2023-04-04T03:28:30.784Z,10.75
2023-04-04T03:31:05.198Z,10.98
2023-04-04T03:33:38.634Z,11.82
2023-04-04T03:36:12.084Z,12.70
2023-04-04T03:38:41.102Z,12.18
2023-04-04T03:41:11.417Z,12.25
2023-04-04T03:43:39.642Z,12.90
2023-04-04T03:46:08.359Z,12.18
2023-04-04T03:48:38.366Z,12.35
2023-04-04T03:51:09.599Z,12.32
2023-04-04T03:53:38.876Z,14.07
2023-04-04T03:56:07.825Z,14.50
2023-04-04T03:58:37.184Z,17.25
2023-04-04T04:01:05.516Z,17.02
2023-04-04T04:03:34.001Z,18.02
2023-04-04T04:06:04.079Z,16.08
2023-04-04T04:08:33.469Z,16.63
2023-04-04T04:11:05.879Z,17.08
2023-04-04T04:13:36.074Z,18.88
2023-04-04T04:16:05.093Z,17.65
2023-04-04T04:18:33.772Z,17.30
2023-04-04T04:21:05.126Z,17.00
2023-04-04T04:23:34.891Z,18.10
2023-04-04T04:26:03.793Z,19.23
2023-04-04T04:28:33.979Z,17.58
2023-04-04T04:31:07.466Z,15.77
2023-04-04T04:33:40.547Z,15.30
2023-04-04T04:36:10.861Z,14.38
2023-04-04T04:38:55.551Z,15.13
2023-04-04T04:41:24.047Z,23.65
2023-04-04T04:43:53.688Z,23.85
2023-04-04T04:46:25.081Z,22.30
2023-04-04T04:48:54.002Z,25.23
2023-04-04T04:51:29.301Z,22.48
2023-04-04T04:53:59.439Z,21.52
2023-04-04T04:56:29.554Z,24.17
2023-04-04T04:59:07.440Z,22.52
2023-04-04T05:01:39.170Z,20.85
2023-04-04T05:04:07.576Z,23.80
2023-04-04T05:06:46.394Z,22.20
2023-04-04T05:09:15.379Z,23.63
2023-04-04T05:11:43.669Z,22.50
2023-04-04T05:14:14.302Z,22.95
2023-04-04T05:16:51.157Z,22.83
2023-04-04T05:19:19.473Z,23.90
2023-04-04T05:21:54.192Z,24.17
2023-04-04T05:24:45.347Z,21.73
2023-04-04T05:27:16.907Z,23.17
2023-04-04T05:29:49.583Z,23.80
2023-04-04T05:32:17.856Z,23.20
2023-04-04T05:34:54.162Z,25.35
2023-04-04T05:37:24.460Z,24.88
2023-04-04T05:39:53.235Z,24.92
2023-04-04T05:42:21.842Z,24.20
2023-04-04T05:44:53.892Z,26.23
2023-04-04T05:47:22.801Z,25.88
2023-04-04T05:49:51.736Z,24.60
2023-04-04T05:52:21.145Z,26.90
2023-04-04T05:54:51.965Z,25.80
2023-04-04T05:57:27.849Z,24.70
2023-04-04T05:59:58.772Z,26.63
2023-04-04T06:02:29.318Z,28.50
2023-04-04T06:05:02.832Z,28.00
2023-04-04T06:07:36.477Z,27.77
2023-04-04T06:10:07.415Z,26.98
2023-04-04T06:12:37.158Z,25.08
2023-04-04T06:15:10.131Z,25.35
2023-04-04T06:17:39.083Z,24.95
2023-04-04T06:20:08.982Z,25.95
2023-04-04T06:22:37.353Z,27.55
2023-04-04T06:25:10.456Z,24.75
2023-04-04T06:27:39.684Z,15.18
2023-04-04T06:30:11.862Z,11.60
2023-04-04T06:32:41.178Z,7.07
2023-04-04T06:35:11.140Z,4.03
2023-04-04T06:37:44.685Z,3.45
2023-04-04T06:40:18.364Z,3.85
2023-04-04T06:42:50.697Z,3.00
2023-04-04T06:45:19.707Z,3.38
2023-04-04T06:47:50.171Z,1.98
2023-04-04T06:50:18.852Z,2.25
2023-04-04T06:52:49.387Z,3.28
2023-04-04T06:55:19.057Z,2.55
2023-04-04T06:57:47.306Z,2.53
2023-04-04T07:00:16.801Z,2.42
2023-04-04T07:02:45.111Z,1.70
2023-04-04T07:05:14.274Z,2.15
2023-04-04T07:07:42.399Z,2.00
2023-04-04T07:10:11.057Z,2.90
2023-04-04T07:12:40.572Z,2.75
2023-04-04T07:15:10.142Z,1.63
2023-04-04T07:17:39.116Z,2.00
2023-04-04T07:20:08.365Z,2.00
2023-04-04T07:22:38.849Z,1.90
2023-04-04T07:25:08.243Z,2.05
2023-04-04T07:27:37.093Z,2.75
2023-04-04T07:30:08.220Z,2.10
2023-04-04T07:32:38.260Z,2.03
2023-04-04T07:35:08.151Z,2.15
2023-04-04T07:37:38.124Z,2.03
2023-04-04T07:40:08.736Z,2.00
2023-04-04T07:42:38.157Z,2.10
2023-04-04T07:45:08.935Z,1.70
2023-04-04T07:47:37.393Z,1.63
2023-04-04T07:50:06.231Z,2.05
2023-04-04T07:52:35.008Z,1.70
2023-04-04T07:55:03.721Z,1.58
2023-04-04T07:57:31.937Z,1.90
2023-04-04T08:00:00.406Z,2.30
2023-04-04T08:02:30.167Z,2.35
2023-04-04T08:04:58.311Z,1.95
2023-04-04T08:07:28.142Z,2.53
2023-04-04T08:09:58.126Z,2.55
2023-04-04T08:12:26.356Z,2.35
2023-04-04T08:14:54.394Z,2.35
2023-04-04T08:17:22.906Z,2.28
2023-04-04T08:19:52.400Z,2.25
2023-04-04T08:22:21.318Z,2.45
2023-04-04T08:24:49.722Z,3.13
2023-04-04T08:27:17.958Z,2.10
2023-04-04T08:29:48.157Z,2.47
2023-04-04T08:32:17.018Z,2.60
2023-04-04T08:34:45.163Z,2.15
2023-04-04T08:37:14.951Z,2.30
2023-04-04T08:39:44.114Z,2.13
2023-04-04T08:42:12.481Z,1.70
2023-04-04T08:44:46.005Z,2.08
2023-04-04T08:47:14.920Z,2.40
2023-04-04T08:49:45.907Z,2.05
2023-04-04T08:52:19.249Z,2.30
2023-04-04T08:54:48.573Z,2.40
2023-04-04T08:57:16.917Z,1.75
2023-04-04T08:59:45.400Z,2.45
2023-04-04T09:02:24.455Z,1.98
2023-04-04T09:05:05.415Z,2.03
2023-04-04T09:07:39.208Z,2.55
2023-04-04T09:10:11.714Z,2.97
2023-04-04T09:12:45.621Z,2.60
2023-04-04T09:15:14.151Z,2.83
2023-04-04T09:17:42.558Z,2.75
2023-04-04T09:20:36.989Z,1.92
2023-04-04T09:23:09.311Z,2.50
2023-04-04T09:25:38.183Z,2.47
2023-04-04T09:28:06.750Z,2.60
2023-04-04T09:30:35.993Z,2.83
2023-04-04T09:33:06.678Z,3.28
2023-04-04T09:35:37.797Z,2.85
2023-04-04T09:38:07.903Z,2.83
2023-04-04T09:40:38.164Z,1.98
2023-04-04T09:43:10.150Z,2.65
2023-04-04T09:45:41.051Z,2.80
2023-04-04T09:48:10.236Z,3.20
2023-04-04T09:50:46.414Z,2.85
2023-04-04T09:53:19.207Z,3.15
2023-04-04T09:55:52.686Z,3.60
2023-04-04T09:58:26.542Z,4.00
2023-04-04T10:00:56.784Z,3.70
2023-04-04T10:03:26.329Z,4.43
2023-04-04T10:06:00.271Z,3.65
2023-04-04T10:08:31.241Z,3.45
2023-04-04T10:11:09.641Z,3.70
2023-04-04T10:13:42.151Z,3.45
2023-04-04T10:16:12.043Z,3.15
2023-04-04T10:18:41.481Z,4.50
2023-04-04T10:23:46.510Z,5.60
2023-04-04T10:26:15.425Z,4.28
2023-04-04T10:28:44.424Z,5.82
2023-04-04T10:31:21.510Z,5.75
2023-04-04T10:33:57.418Z,5.60
2023-04-04T10:36:31.648Z,4.15
2023-04-04T10:39:11.489Z,5.00
2023-04-04T10:41:41.512Z,5.63
2023-04-04T10:44:17.697Z,4.72
2023-04-04T10:46:48.469Z,4.70
2023-04-04T10:49:17.118Z,4.03
2023-04-04T10:51:55.819Z,3.88
2023-04-04T10:54:29.214Z,4.85
2023-04-04T10:57:01.621Z,5.18
2023-04-04T10:59:29.913Z,5.63
2023-04-04T11:01:59.865Z,4.55
2023-04-04T11:04:34.294Z,4.90
2023-04-04T11:07:09.545Z,5.03
2023-04-04T11:09:53.818Z,5.70
2023-04-04T11:12:24.143Z,5.18
2023-04-04T11:15:08.160Z,5.45
2023-04-04T11:17:53.097Z,5.10
2023-04-04T11:20:23.802Z,4.30
2023-04-04T11:22:52.695Z,5.72
2023-04-04T11:25:30.939Z,6.60
2023-04-04T11:27:59.923Z,5.03
2023-04-04T11:30:29.571Z,6.07
2023-04-04T11:33:06.980Z,4.70
2023-04-04T11:35:39.877Z,4.57
2023-04-04T11:38:14.837Z,5.13
2023-04-04T11:40:54.499Z,4.65
2023-04-04T11:43:23.762Z,5.80
2023-04-04T11:45:53.042Z,4.82
2023-04-04T11:48:21.839Z,6.03
2023-04-04T11:50:53.276Z,5.50
2023-04-04T11:53:22.285Z,5.22
2023-04-04T11:55:53.049Z,4.47
2023-04-04T11:58:21.321Z,5.45
2023-04-04T12:00:50.648Z,5.78
2023-04-04T12:03:19.016Z,6.00
2023-04-04T12:05:47.882Z,5.97
2023-04-04T12:08:18.165Z,5.50
2023-04-04T12:10:46.884Z,6.90
2023-04-04T12:13:16.512Z,7.70
2023-04-04T12:15:45.203Z,6.80
2023-04-04T12:18:22.806Z,7.90
2023-04-04T12:20:52.862Z,6.70
2023-04-04T12:23:21.473Z,6.78
2023-04-04T12:25:54.270Z,7.85
2023-04-04T12:28:25.360Z,7.70
2023-04-04T12:30:55.718Z,6.60
2023-04-04T12:33:24.145Z,6.93
2023-04-04T12:35:53.728Z,7.63
2023-04-04T12:38:22.027Z,6.15
2023-04-04T12:40:52.758Z,6.47
2023-04-04T12:43:21.574Z,7.05
2023-04-04T12:45:52.879Z,6.40
2023-04-04T12:48:22.878Z,7.32
2023-04-04T12:50:55.780Z,7.95
2023-04-04T12:53:29.014Z,8.38
2023-04-04T12:56:03.176Z,8.35
2023-04-04T12:58:34.912Z,7.60
2023-04-04T13:01:05.705Z,7.30
2023-04-04T13:03:35.180Z,8.55
2023-04-04T13:06:03.815Z,7.57
2023-04-04T13:08:32.506Z,7.93
2023-04-04T13:11:02.979Z,7.50
2023-04-04T13:13:40.234Z,9.02
2023-04-04T13:16:10.714Z,8.80
2023-04-04T13:18:42.540Z,7.47
2023-04-04T13:21:13.008Z,8.82
2023-04-04T13:23:42.592Z,9.00
2023-04-04T13:26:11.772Z,8.93
2023-04-04T13:28:40.104Z,9.85
2023-04-04T13:31:11.821Z,11.30
2023-04-04T13:33:40.506Z,9.77
2023-04-04T13:36:09.296Z,13.02
2023-04-04T13:38:37.649Z,9.48
2023-04-04T13:41:05.960Z,10.65
2023-04-04T13:43:34.116Z,10.98
2023-04-04T13:46:02.638Z,11.30
2023-04-04T13:48:32.327Z,11.68
2023-04-04T13:51:00.542Z,10.60
2023-04-04T13:53:28.669Z,11.48
2023-04-04T13:56:16.713Z,9.32
2023-04-04T13:58:45.263Z,11.82
2023-04-04T14:01:13.660Z,11.65
2023-04-04T14:03:43.397Z,12.77
2023-04-04T14:06:12.446Z,10.05
2023-04-04T14:08:40.760Z,11.00
2023-04-04T14:11:08.969Z,11.60
2023-04-04T14:13:37.414Z,11.65
2023-04-04T14:16:05.852Z,12.05
2023-04-04T14:18:34.522Z,12.18
2023-04-04T14:21:04.554Z,12.15
2023-04-04T14:23:33.050Z,11.20
2023-04-04T14:26:01.287Z,11.77
2023-04-04T14:28:29.429Z,11.75
2023-04-04T14:30:57.576Z,11.45
2023-04-04T14:33:26.396Z,11.45
2023-04-04T14:35:54.604Z,11.73
2023-04-04T14:38:24.143Z,12.07
2023-04-04T14:40:52.695Z,12.80
2023-04-04T14:43:20.726Z,11.80
2023-04-04T14:45:49.041Z,12.52
2023-04-04T14:48:17.232Z,11.13
2023-04-04T14:50:46.008Z,13.25
2023-04-04T14:53:14.822Z,12.75
2023-04-04T14:55:44.264Z,9.77
2023-04-04T14:58:13.196Z,12.18
2023-04-04T15:00:41.415Z,12.38
2023-04-04T15:03:10.015Z,14.75
2023-04-04T15:05:38.242Z,10.98
2023-04-04T15:08:06.490Z,12.05
2023-04-04T15:10:34.941Z,10.05
2023-04-04T15:13:04.526Z,11.18
2023-04-04T15:15:32.811Z,13.02
2023-04-04T15:18:01.637Z,11.27
2023-04-04T15:20:29.752Z,11.68
2023-04-04T15:22:57.887Z,11.63
2023-04-04T15:25:26.147Z,11.68
2023-04-04T15:27:54.251Z,12.38
2023-04-04T15:30:23.998Z,11.98
2023-04-04T15:32:54.296Z,12.82
2023-04-04T15:35:22.626Z,11.63
2023-04-04T15:37:51.421Z,12.57
2023-04-04T15:40:20.669Z,12.70
2023-04-04T15:42:48.954Z,12.43
2023-04-04T15:45:17.617Z,12.25
2023-04-04T15:47:47.608Z,13.15
2023-04-04T15:50:15.812Z,11.05
2023-04-04T15:52:43.972Z,11.35
2023-04-04T15:55:14.414Z,12.15
2023-04-04T15:57:44.767Z,11.23
2023-04-04T16:00:15.032Z,13.27
2023-04-04T16:02:43.628Z,14.68
2023-04-04T16:05:13.163Z,15.35
2023-04-04T16:07:41.370Z,13.95
2023-04-04T16:10:11.002Z,11.98
2023-04-04T16:12:39.376Z,11.65
2023-04-04T16:15:09.032Z,11.43
2023-04-04T16:17:37.798Z,12.82
2023-04-04T16:20:07.530Z,12.18
2023-04-04T16:22:36.947Z,12.07
2023-04-04T16:25:05.520Z,12.60
2023-04-04T16:27:34.194Z,13.43
2023-04-04T16:30:02.660Z,13.07
2023-04-04T16:32:31.831Z,11.75
2023-04-04T16:35:00.041Z,12.77
2023-04-04T16:37:28.200Z,13.13
2023-04-04T16:40:00.484Z,13.23
2023-04-04T16:42:28.765Z,13.13
2023-04-04T16:44:56.988Z,12.13
2023-04-04T16:47:26.758Z,12.77
2023-04-04T16:49:56.291Z,13.90
2023-04-04T16:52:24.864Z,13.32
2023-04-04T16:54:54.429Z,12.32
2023-04-04T16:57:24.488Z,14.65
2023-04-04T16:59:52.692Z,14.25
2023-04-04T17:02:20.943Z,13.30
2023-04-04T17:04:49.110Z,15.52
2023-04-04T17:07:17.916Z,18.90
2023-04-04T17:09:48.222Z,19.88
2023-04-04T17:12:17.155Z,15.68
2023-04-04T17:14:47.437Z,16.20
2023-04-04T17:17:15.884Z,15.07
2023-04-04T17:19:45.332Z,20.05
2023-04-04T17:22:13.784Z,14.40
2023-04-04T17:24:42.080Z,17.13
2023-04-04T17:27:10.945Z,17.90
2023-04-04T17:29:39.350Z,17.52
2023-04-04T17:32:09.712Z,19.02
2023-04-04T17:34:38.703Z,16.20
2023-04-04T17:37:11.110Z,14.05
2023-04-04T17:39:40.018Z,15.50
2023-04-04T17:42:08.424Z,16.42
2023-04-04T17:44:38.177Z,15.38
2023-04-04T17:47:09.248Z,14.50
2023-04-04T17:49:38.201Z,15.52
2023-04-04T17:52:07.699Z,18.90
2023-04-04T17:54:37.223Z,16.15
2023-04-04T17:57:07.273Z,19.17
2023-04-04T17:59:35.626Z,16.30
2023-04-04T18:02:04.599Z,16.08
2023-04-04T18:04:34.706Z,15.60
2023-04-04T18:07:03.658Z,13.50
2023-04-04T18:09:32.490Z,14.20
2023-04-04T18:12:01.763Z,13.23
2023-04-04T18:14:30.118Z,18.00
2023-04-04T18:16:58.220Z,14.07
2023-04-04T18:19:26.531Z,13.70
2023-04-04T18:22:00.467Z,15.40
2023-04-04T18:24:28.872Z,13.27
2023-04-04T18:26:57.305Z,14.10
2023-04-04T18:29:26.882Z,14.70
2023-04-04T18:31:55.900Z,13.35
2023-04-04T18:34:24.401Z,11.85
2023-04-04T18:36:52.647Z,13.52
2023-04-04T18:39:22.935Z,14.18
2023-04-04T18:41:52.148Z,14.57
2023-04-04T18:44:20.416Z,12.30
2023-04-04T18:46:48.795Z,14.70
2023-04-04T18:49:16.966Z,12.25
2023-04-04T18:51:45.863Z,14.23
2023-04-04T18:54:16.861Z,12.98
2023-04-04T18:56:47.476Z,13.70
2023-04-04T18:59:18.647Z,14.65
2023-04-04T19:01:47.373Z,12.75
2023-04-04T19:04:20.081Z,15.18
2023-04-04T19:06:50.873Z,14.23
2023-04-04T19:09:21.528Z,12.98
2023-04-04T19:11:54.280Z,13.55
2023-04-04T19:14:22.545Z,13.85
2023-04-04T19:16:51.991Z,14.57
2023-04-04T19:19:22.315Z,13.18
2023-04-04T19:21:50.715Z,14.18
2023-04-04T19:24:19.132Z,12.50
2023-04-04T19:26:48.103Z,13.90
2023-04-04T19:29:23.072Z,12.60
2023-04-04T19:31:54.501Z,15.23
2023-04-04T19:34:22.952Z,12.35
2023-04-04T19:36:51.332Z,13.30
2023-04-04T19:39:21.356Z,13.02
2023-04-04T19:41:49.529Z,12.15
2023-04-04T19:44:22.434Z,12.20
2023-04-04T19:46:51.743Z,10.75
2023-04-04T19:49:20.772Z,12.07
2023-04-04T19:51:54.468Z,11.55
2023-04-04T19:54:27.023Z,10.57
2023-04-04T19:57:00.507Z,11.00
2023-04-04T20:00:01.953Z,12.60
2023-04-04T20:03:00.037Z,14.35
2023-04-04T20:06:04.149Z,13.10
2023-04-04T20:08:37.103Z,11.45
2023-04-04T20:11:07.954Z,11.82
2023-04-04T20:13:38.107Z,14.13
2023-04-04T20:16:09.578Z,11.57
2023-04-04T20:18:39.824Z,10.00
2023-04-04T20:21:16.892Z,11.00
2023-04-04T20:23:48.219Z,13.30
2023-04-04T20:26:47.694Z,9.98
2023-04-04T20:29:18.002Z,10.77
2023-04-04T20:31:50.341Z,12.45
2023-04-04T20:34:33.608Z,12.45
2023-04-04T20:37:05.140Z,12.48
2023-04-04T20:39:48.277Z,12.32
2023-04-04T20:42:32.368Z,12.68
2023-04-04T20:45:08.401Z,11.43
2023-04-04T20:47:43.789Z,12.75
2023-04-04T20:50:47.110Z,11.85
2023-04-04T20:53:20.785Z,11.20
2023-04-04T20:55:51.278Z,12.38
2023-04-04T20:58:28.159Z,12.73
2023-04-04T21:00:58.226Z,14.18
2023-04-04T21:03:38.722Z,13.73
2023-04-04T21:06:13.392Z,12.70
2023-04-04T21:08:47.429Z,11.25
2023-04-04T21:11:24.098Z,14.10
2023-04-04T21:13:53.171Z,11.63
2023-04-04T21:16:25.271Z,11.55
2023-04-04T21:19:00.012Z,11.55
2023-04-04T21:21:29.107Z,14.38
2023-04-04T21:23:58.479Z,12.90
2023-04-04T21:26:34.942Z,11.15
2023-04-04T21:29:05.486Z,12.90
2023-04-04T21:31:39.202Z,11.30
2023-04-04T21:34:15.543Z,10.90
2023-04-04T21:36:44.872Z,10.00
2023-04-04T21:39:14.655Z,10.70
2023-04-04T21:41:45.144Z,11.60
2023-04-04T21:44:13.607Z,11.73
2023-04-04T21:46:43.192Z,11.45
2023-04-04T21:49:12.962Z,11.20
2023-04-04T21:51:41.303Z,11.45
2023-04-04T21:54:09.795Z,10.63
2023-04-04T21:56:38.650Z,11.50
2023-04-04T21:59:09.142Z,10.45
2023-04-04T22:01:38.380Z,11.80
2023-04-04T22:04:06.840Z,12.50
2023-04-04T22:06:36.802Z,12.35
2023-04-04T22:09:05.709Z,10.65
2023-04-04T22:11:34.616Z,11.05
2023-04-04T22:14:07.296Z,11.27
2023-04-04T22:16:38.971Z,12.68
2023-04-04T22:19:10.988Z,11.98
2023-04-04T22:21:48.415Z,11.55
2023-04-04T22:24:18.912Z,10.55
2023-04-04T22:26:47.477Z,12.80
2023-04-04T22:29:15.891Z,11.00
2023-04-04T22:31:44.144Z,11.15
2023-04-04T22:34:14.773Z,12.15
2023-04-04T22:36:44.987Z,11.25
2023-04-04T22:39:16.110Z,12.15
2023-04-04T22:41:44.444Z,11.95
2023-04-04T22:44:12.566Z,13.98
2023-04-04T22:46:41.119Z,12.65
2023-04-04T22:49:09.213Z,12.52
2023-04-04T22:51:44.209Z,11.75
2023-04-04T22:54:16.371Z,12.18
2023-04-04T22:56:45.195Z,12.88
2023-04-04T22:59:13.441Z,11.57
2023-04-04T23:01:42.231Z,12.30
2023-04-04T23:04:10.746Z,11.68
2023-04-04T23:06:39.377Z,13.45
2023-04-04T23:09:08.920Z,11.35
2023-04-04T23:11:38.697Z,11.57
2023-04-04T23:14:09.259Z,11.38
2023-04-04T23:16:37.993Z,10.43
2023-04-04T23:19:06.235Z,12.13
2023-04-04T23:21:34.510Z,12.15
2023-04-04T23:24:02.623Z,12.18
2023-04-04T23:26:31.323Z,12.77
2023-04-04T23:29:01.465Z,11.90
2023-04-04T23:31:29.925Z,13.23
2023-04-04T23:33:58.183Z,12.82
2023-04-04T23:36:27.232Z,14.82
2023-04-04T23:38:55.452Z,13.23
2023-04-04T23:41:23.701Z,12.73
2023-04-04T23:43:53.382Z,11.77
2023-04-04T23:46:24.097Z,11.73
2023-04-04T23:48:52.275Z,13.15
2023-04-04T23:51:21.583Z,13.60
2023-04-04T23:53:49.743Z,11.45
2023-04-04T23:56:17.962Z,12.20
2023-04-04T23:58:46.221Z,11.35
